createdAt,value
2019-05-16T00:01:05.179Z,1.10
2019-05-16T00:03:32.129Z,1.57
2019-05-16T00:05:59.093Z,3.03
2019-05-16T00:08:28.380Z,2.13
2019-05-16T00:10:54.921Z,2.63
2019-05-16T00:13:21.842Z,0.70
2019-05-16T00:15:48.853Z,5.47
2019-05-16T00:18:17.858Z,1.10
2019-05-16T00:20:45.015Z,3.60
2019-05-16T00:23:11.988Z,1.67
2019-05-16T00:25:39.180Z,1.20
2019-05-16T00:28:06.167Z,0.90
2019-05-16T00:30:33.115Z,2.63
2019-05-16T00:33:00.091Z,1.83
2019-05-16T00:35:28.569Z,2.30
2019-05-16T00:37:55.823Z,1.30
2019-05-16T00:40:22.790Z,0.90
2019-05-16T00:42:49.947Z,2.50
2019-05-16T00:45:18.510Z,1.87
2019-05-16T00:47:47.808Z,4.00
2019-05-16T00:50:14.529Z,2.10
2019-05-16T00:52:41.498Z,1.40
2019-05-16T00:55:08.607Z,1.10
2019-05-16T00:57:38.634Z,1.10
2019-05-16T01:00:05.607Z,4.87
2019-05-16T01:02:32.592Z,1.10
2019-05-16T01:04:59.535Z,0.80
2019-05-16T01:07:27.724Z,1.00
2019-05-16T01:09:54.828Z,0.73
2019-05-16T01:12:21.845Z,1.43
2019-05-16T01:14:48.796Z,1.10
2019-05-16T01:17:18.024Z,1.73
2019-05-16T01:19:44.641Z,1.53
2019-05-16T01:22:11.597Z,1.63
2019-05-16T01:24:41.415Z,0.90
2019-05-16T01:27:08.325Z,0.70
2019-05-16T01:29:35.344Z,0.93
2019-05-16T01:32:02.320Z,2.30
2019-05-16T01:34:29.302Z,7.43
2019-05-16T01:36:58.793Z,2.43
2019-05-16T01:39:25.121Z,1.57
2019-05-16T01:41:52.116Z,3.60
2019-05-16T01:44:19.070Z,0.70
2019-05-16T01:46:47.977Z,0.70
2019-05-16T01:49:14.864Z,6.30
2019-05-16T01:51:41.810Z,1.70
2019-05-16T01:54:08.831Z,1.63
2019-05-16T01:56:35.724Z,1.23
2019-05-16T01:59:02.716Z,0.90
2019-05-16T02:01:29.681Z,4.10
2019-05-16T02:03:58.670Z,0.70
2019-05-16T02:06:25.504Z,0.83
2019-05-16T02:08:52.477Z,0.60
2019-05-16T02:11:19.408Z,0.80
2019-05-16T02:13:48.506Z,0.93
2019-05-16T02:16:15.251Z,0.80
2019-05-16T02:18:42.331Z,3.37
2019-05-16T02:21:09.273Z,2.60
2019-05-16T02:23:38.213Z,2.87
2019-05-16T02:26:05.107Z,2.60
2019-05-16T02:28:39.717Z,3.07
2019-05-16T02:31:01.528Z,7.70
2019-05-16T02:33:31.376Z,1.53
2019-05-16T02:35:57.404Z,0.77
2019-05-16T02:38:24.364Z,1.37
2019-05-16T02:40:55.039Z,1.47
2019-05-16T02:43:25.327Z,1.10
2019-05-16T02:45:52.058Z,0.80
2019-05-16T02:48:21.291Z,1.73
2019-05-16T02:50:50.887Z,1.70
2019-05-16T02:53:16.448Z,1.77
2019-05-16T02:55:43.387Z,1.27
2019-05-16T02:58:11.486Z,1.90
2019-05-16T03:00:42.654Z,1.33
2019-05-16T03:03:07.677Z,1.50
2019-05-16T03:05:34.634Z,0.90
2019-05-16T03:08:01.918Z,1.70
2019-05-16T03:10:31.156Z,2.00
2019-05-16T03:13:00.943Z,1.50
2019-05-16T03:15:30.708Z,0.77
2019-05-16T03:18:03.765Z,1.13
2019-05-16T03:20:32.119Z,0.70
2019-05-16T03:23:02.116Z,1.37
2019-05-16T03:25:30.903Z,1.17
2019-05-16T03:27:57.088Z,2.50
2019-05-16T03:30:24.297Z,1.13
2019-05-16T03:32:54.611Z,1.40
2019-05-16T03:35:24.690Z,1.53
2019-05-16T03:37:55.660Z,1.20
2019-05-16T03:40:25.114Z,1.40
2019-05-16T03:42:52.128Z,1.17
2019-05-16T03:45:21.148Z,2.77
2019-05-16T03:47:50.998Z,0.90
2019-05-16T03:50:16.913Z,1.07
2019-05-16T03:52:44.079Z,1.10
2019-05-16T03:55:11.653Z,0.63
2019-05-16T03:57:41.438Z,1.93
2019-05-16T04:00:07.816Z,1.03
2019-05-16T04:02:34.735Z,1.67
2019-05-16T04:05:02.438Z,1.83
2019-05-16T04:07:31.683Z,1.40
2019-05-16T04:10:01.894Z,1.63
2019-05-16T04:12:27.018Z,1.47
2019-05-16T04:14:53.992Z,1.43
2019-05-16T04:17:21.280Z,0.73
2019-05-16T04:19:50.831Z,3.33
2019-05-16T04:22:17.099Z,0.73
2019-05-16T04:24:44.075Z,1.23
2019-05-16T04:27:12.072Z,1.23
2019-05-16T04:29:40.805Z,1.70
2019-05-16T04:32:10.879Z,2.70
2019-05-16T04:34:36.800Z,1.33
2019-05-16T04:37:03.772Z,1.23
2019-05-16T04:39:31.971Z,1.20
2019-05-16T04:42:01.625Z,1.47
2019-05-16T04:44:30.959Z,1.23
2019-05-16T04:46:56.995Z,1.70
2019-05-16T04:49:23.931Z,8.33
2019-05-16T04:51:51.887Z,1.37
2019-05-16T04:54:21.575Z,2.10
2019-05-16T04:56:47.876Z,2.20
2019-05-16T04:59:16.669Z,3.60
2019-05-16T05:01:43.770Z,3.30
2019-05-16T05:04:15.285Z,1.00
2019-05-16T05:06:40.615Z,5.13
2019-05-16T05:09:07.721Z,2.63
2019-05-16T05:11:34.881Z,2.77
2019-05-16T05:14:01.814Z,1.90
2019-05-16T05:16:30.599Z,2.57
2019-05-16T05:19:00.163Z,1.60
2019-05-16T05:21:26.494Z,1.10
2019-05-16T05:23:53.431Z,1.20
2019-05-16T05:26:20.490Z,2.43
2019-05-16T05:28:47.438Z,1.33
2019-05-16T05:31:14.454Z,3.80
2019-05-16T05:33:41.857Z,2.10
2019-05-16T05:36:12.034Z,0.90
2019-05-16T05:38:40.085Z,2.37
2019-05-16T05:41:06.669Z,4.13
2019-05-16T05:43:33.665Z,1.47
2019-05-16T05:46:00.992Z,1.40
2019-05-16T05:48:30.583Z,2.23
2019-05-16T05:50:56.834Z,1.47
2019-05-16T05:53:23.794Z,1.10
2019-05-16T05:55:51.580Z,3.07
2019-05-16T05:58:20.566Z,2.70
2019-05-16T06:00:47.710Z,1.53
2019-05-16T06:03:14.694Z,4.13
2019-05-16T06:05:41.623Z,3.73
2019-05-16T06:08:10.703Z,4.47
2019-05-16T06:10:37.748Z,2.40
2019-05-16T06:13:04.732Z,1.27
2019-05-16T06:15:31.777Z,3.07
2019-05-16T06:18:00.307Z,4.03
2019-05-16T06:20:27.305Z,2.73
2019-05-16T06:22:54.309Z,3.30
2019-05-16T06:25:22.648Z,1.27
2019-05-16T06:27:51.126Z,4.30
2019-05-16T06:30:20.599Z,1.70
2019-05-16T06:32:47.356Z,1.47
2019-05-16T06:35:14.412Z,2.70
2019-05-16T06:37:41.378Z,3.47
2019-05-16T06:40:10.735Z,1.33
2019-05-16T06:42:37.153Z,3.47
2019-05-16T06:45:04.874Z,2.40
2019-05-16T06:47:32.313Z,4.83
2019-05-16T06:50:00.257Z,3.90
2019-05-16T06:52:27.435Z,3.30
2019-05-16T06:54:54.450Z,1.30
2019-05-16T06:57:21.451Z,2.90
2019-05-16T06:59:50.020Z,2.20
2019-05-16T07:02:27.648Z,3.00
2019-05-16T07:04:45.914Z,1.90
2019-05-16T07:07:13.330Z,2.70
2019-05-16T07:09:41.849Z,0.90
2019-05-16T07:12:10.500Z,4.83
2019-05-16T07:14:37.555Z,1.97
2019-05-16T07:17:04.518Z,3.60
2019-05-16T07:19:31.495Z,7.30
2019-05-16T07:21:59.793Z,3.87
2019-05-16T07:24:26.893Z,3.00
2019-05-16T07:26:53.886Z,2.50
2019-05-16T07:29:22.846Z,4.10
2019-05-16T07:31:52.333Z,2.30
2019-05-16T07:34:20.666Z,3.53
2019-05-16T07:36:50.099Z,1.37
2019-05-16T07:39:16.585Z,3.73
2019-05-16T07:41:43.516Z,8.13
2019-05-16T07:44:11.096Z,2.77
2019-05-16T07:46:40.844Z,1.70
2019-05-16T07:49:06.940Z,1.53
2019-05-16T07:51:50.004Z,1.90
2019-05-16T07:54:34.550Z,2.37
2019-05-16T07:57:11.575Z,1.73
2019-05-16T07:59:29.925Z,5.03
2019-05-16T08:01:57.098Z,1.33
2019-05-16T08:04:24.093Z,1.87
2019-05-16T08:06:51.082Z,4.10
2019-05-16T08:09:18.077Z,2.37
2019-05-16T08:11:45.044Z,2.43
2019-05-16T08:14:12.020Z,1.43
2019-05-16T08:16:40.807Z,1.20
2019-05-16T08:19:10.375Z,2.30
2019-05-16T08:21:36.845Z,4.07
2019-05-16T08:24:07.150Z,2.40
2019-05-16T08:26:38.786Z,4.33
2019-05-16T08:29:02.294Z,2.87
2019-05-16T08:31:31.739Z,2.50
2019-05-16T08:34:00.983Z,5.53
2019-05-16T08:36:27.213Z,6.23
2019-05-16T08:38:54.335Z,4.30
2019-05-16T08:41:22.251Z,2.00
2019-05-16T08:43:53.421Z,2.00
2019-05-16T08:46:20.742Z,1.63
2019-05-16T08:48:47.947Z,2.03
2019-05-16T08:51:14.913Z,1.63
2019-05-16T08:53:43.615Z,2.00
2019-05-16T08:56:12.994Z,5.13
2019-05-16T08:58:40.994Z,5.30
2019-05-16T09:01:14.356Z,1.60
2019-05-16T09:03:37.022Z,4.93
2019-05-16T09:06:04.036Z,1.77
2019-05-16T09:08:30.983Z,5.30
2019-05-16T09:11:02.102Z,2.67
2019-05-16T09:13:27.960Z,1.50
2019-05-16T09:15:57.045Z,3.00
2019-05-16T09:18:28.237Z,2.70
2019-05-16T09:20:53.988Z,2.80
2019-05-16T09:23:20.911Z,3.63
2019-05-16T09:25:48.733Z,3.83
2019-05-16T09:28:16.892Z,3.33
2019-05-16T09:30:46.587Z,6.50
2019-05-16T09:33:13.002Z,1.30
2019-05-16T09:35:39.959Z,4.73
2019-05-16T09:38:07.297Z,2.70
2019-05-16T09:40:34.285Z,2.83
2019-05-16T09:43:01.230Z,2.50
2019-05-16T09:45:28.215Z,5.67
2019-05-16T09:47:57.342Z,3.60
2019-05-16T09:50:26.485Z,4.80
2019-05-16T09:52:53.261Z,2.50
2019-05-16T09:55:20.338Z,1.40
2019-05-16T09:57:47.283Z,2.00
2019-05-16T10:00:17.903Z,1.60
2019-05-16T10:02:47.521Z,2.10
2019-05-16T10:05:16.807Z,1.67
2019-05-16T10:07:43.326Z,3.23
2019-05-16T10:10:10.701Z,4.57
2019-05-16T10:12:37.678Z,3.20
2019-05-16T10:15:07.525Z,1.63
2019-05-16T10:17:36.779Z,2.30
2019-05-16T10:20:02.972Z,2.90
2019-05-16T10:22:29.931Z,4.00
2019-05-16T10:24:57.372Z,3.10
2019-05-16T10:27:26.385Z,2.30
2019-05-16T10:29:53.224Z,1.73
2019-05-16T10:32:20.208Z,3.33
2019-05-16T10:34:47.155Z,2.80
2019-05-16T10:37:14.134Z,2.60
2019-05-16T10:39:41.269Z,1.60
2019-05-16T10:42:23.171Z,5.50
2019-05-16T10:44:38.321Z,6.30
2019-05-16T10:47:07.561Z,2.40
2019-05-16T10:49:38.766Z,3.23
2019-05-16T10:52:03.701Z,5.43
2019-05-16T10:54:31.098Z,2.40
2019-05-16T10:57:00.252Z,4.17
2019-05-16T10:59:54.483Z,2.30
2019-05-16T11:01:59.665Z,3.93
2019-05-16T11:04:37.664Z,2.10
2019-05-16T11:06:57.278Z,5.43
2019-05-16T11:09:24.354Z,3.00
2019-05-16T11:11:51.351Z,4.33
2019-05-16T11:14:18.278Z,8.23
2019-05-16T11:16:47.385Z,3.23
2019-05-16T11:19:23.482Z,3.80
2019-05-16T11:21:43.071Z,6.30
2019-05-16T11:24:12.676Z,3.50
2019-05-16T11:26:38.908Z,2.10
2019-05-16T11:29:07.431Z,3.50
2019-05-16T11:31:37.141Z,1.80
2019-05-16T11:34:03.491Z,2.13
2019-05-16T11:36:30.414Z,2.97
2019-05-16T11:39:01.745Z,3.63
2019-05-16T11:41:27.482Z,6.27
2019-05-16T11:43:56.813Z,2.90
2019-05-16T11:46:23.623Z,4.07
2019-05-16T11:48:50.596Z,3.20
2019-05-16T11:51:17.603Z,3.03
2019-05-16T11:53:47.503Z,6.30
2019-05-16T11:56:13.487Z,3.00
2019-05-16T11:58:40.446Z,3.30
2019-05-16T12:01:07.771Z,3.73
2019-05-16T12:03:37.429Z,5.63
2019-05-16T12:06:05.391Z,6.60
2019-05-16T12:08:33.355Z,4.13
2019-05-16T12:11:00.291Z,5.60
2019-05-16T12:13:32.605Z,4.83
2019-05-16T12:15:56.700Z,5.60
2019-05-16T12:18:23.726Z,3.00
2019-05-16T12:20:50.652Z,3.60
2019-05-16T12:23:17.624Z,3.13
2019-05-16T12:25:44.563Z,2.90
2019-05-16T12:28:11.632Z,2.53
2019-05-16T12:30:40.364Z,6.63
2019-05-16T12:33:07.683Z,6.90
2019-05-16T12:35:36.990Z,5.20
2019-05-16T12:38:03.497Z,2.77
2019-05-16T12:40:30.433Z,2.60
2019-05-16T12:42:57.502Z,5.20
2019-05-16T12:45:27.283Z,2.60
2019-05-16T12:47:53.585Z,3.67
2019-05-16T12:50:20.613Z,3.00
2019-05-16T12:52:47.660Z,3.10
2019-05-16T12:55:16.568Z,2.90
2019-05-16T12:57:43.642Z,5.53
2019-05-16T13:00:14.885Z,2.60
2019-05-16T13:02:41.166Z,3.27
2019-05-16T13:05:08.374Z,2.80
2019-05-16T13:07:37.498Z,3.50
2019-05-16T13:10:06.594Z,6.10
2019-05-16T13:12:34.146Z,4.50
2019-05-16T13:15:01.803Z,7.43
2019-05-16T13:17:28.843Z,2.77
2019-05-16T13:19:57.539Z,3.20
2019-05-16T13:22:27.362Z,3.20
2019-05-16T13:24:57.260Z,2.80
2019-05-16T13:27:23.912Z,3.13
2019-05-16T13:29:50.876Z,4.73
2019-05-16T13:32:17.868Z,4.77
2019-05-16T13:34:44.883Z,3.93
2019-05-16T13:37:11.813Z,5.07
2019-05-16T13:39:39.124Z,3.70
2019-05-16T13:42:07.983Z,3.60
2019-05-16T13:44:37.578Z,5.33
2019-05-16T13:47:04.110Z,3.23
2019-05-16T13:49:31.254Z,3.47
2019-05-16T13:51:58.183Z,5.40
2019-05-16T13:54:26.931Z,3.40
2019-05-16T13:56:53.999Z,3.33
2019-05-16T13:59:20.965Z,3.67
2019-05-16T14:01:47.902Z,4.90
2019-05-16T14:04:17.092Z,5.27
2019-05-16T14:06:43.696Z,5.10
2019-05-16T14:09:10.632Z,5.30
2019-05-16T14:11:37.593Z,3.50
2019-05-16T14:14:05.088Z,3.80
2019-05-16T14:16:32.128Z,3.23
2019-05-16T14:18:59.141Z,9.23
2019-05-16T14:21:26.124Z,3.70
2019-05-16T14:23:53.787Z,4.37
2019-05-16T14:26:20.840Z,3.43
2019-05-16T14:28:48.828Z,3.23
2019-05-16T14:31:17.403Z,3.13
2019-05-16T14:33:44.542Z,4.73
2019-05-16T14:36:11.517Z,5.50
2019-05-16T14:38:38.447Z,5.23
2019-05-16T14:41:07.773Z,7.87
2019-05-16T14:43:36.350Z,5.47
2019-05-16T14:46:06.424Z,6.17
2019-05-16T14:48:32.009Z,4.40
2019-05-16T14:50:58.971Z,3.83
2019-05-16T14:53:28.433Z,4.20
2019-05-16T14:55:57.466Z,5.20
2019-05-16T14:58:23.628Z,4.10
2019-05-16T15:00:50.578Z,4.00
2019-05-16T15:03:18.063Z,3.97
2019-05-16T15:05:47.810Z,5.40
2019-05-16T15:08:14.158Z,3.37
2019-05-16T15:10:41.636Z,4.37
2019-05-16T15:13:08.553Z,8.00
2019-05-16T15:15:37.794Z,3.70
2019-05-16T15:18:07.750Z,5.13
2019-05-16T15:20:33.300Z,4.27
2019-05-16T15:23:00.395Z,14.70
2019-05-16T15:25:27.416Z,4.53
2019-05-16T15:27:54.335Z,8.87
2019-05-16T15:30:21.595Z,9.07
2019-05-16T15:32:48.668Z,6.13
2019-05-16T15:35:18.043Z,6.90
2019-05-16T15:37:47.923Z,4.77
2019-05-16T15:40:14.365Z,6.20
2019-05-16T15:42:41.396Z,10.17
2019-05-16T15:45:09.167Z,6.67
2019-05-16T15:47:37.579Z,5.97
2019-05-16T15:50:07.991Z,6.70
2019-05-16T15:52:38.235Z,13.80
2019-05-16T15:55:09.564Z,7.37
2019-05-16T15:57:33.837Z,6.63
2019-05-16T16:00:00.783Z,6.00
2019-05-16T16:02:29.133Z,8.80
2019-05-16T16:04:57.564Z,8.00
2019-05-16T16:07:27.131Z,7.93
2019-05-16T16:09:54.580Z,5.73
2019-05-16T16:12:22.153Z,6.57
2019-05-16T16:14:49.574Z,5.50
2019-05-16T16:17:18.623Z,8.43
2019-05-16T16:19:46.954Z,5.13
2019-05-16T16:22:14.123Z,6.20
2019-05-16T16:24:41.075Z,5.90
2019-05-16T16:27:08.045Z,6.07
2019-05-16T16:29:36.742Z,6.53
2019-05-16T16:32:06.326Z,7.73
2019-05-16T16:34:32.962Z,8.33
2019-05-16T16:36:59.926Z,9.97
2019-05-16T16:39:26.967Z,8.00
2019-05-16T16:41:56.752Z,7.93
2019-05-16T16:44:22.931Z,8.10
2019-05-16T16:46:49.889Z,8.60
2019-05-16T16:49:17.449Z,10.20
2019-05-16T16:51:44.509Z,7.53
2019-05-16T16:54:11.434Z,11.57
2019-05-16T16:56:38.382Z,9.70
2019-05-16T16:59:06.438Z,7.80
2019-05-16T17:01:33.507Z,9.23
2019-05-16T17:04:01.104Z,8.57
2019-05-16T17:06:28.041Z,8.43
2019-05-16T17:08:56.825Z,7.97
2019-05-16T17:11:26.362Z,8.20
2019-05-16T17:13:52.771Z,8.40
2019-05-16T17:16:25.739Z,10.90
2019-05-16T17:18:48.563Z,8.40
2019-05-16T17:21:17.111Z,7.43
2019-05-16T17:23:46.417Z,7.80
2019-05-16T17:26:13.064Z,7.77
2019-05-16T17:28:40.037Z,15.83
2019-05-16T17:31:07.370Z,7.10
2019-05-16T17:33:37.709Z,11.17
2019-05-16T17:36:03.308Z,8.73
2019-05-16T17:38:30.246Z,8.43
2019-05-16T17:40:57.173Z,9.87
2019-05-16T17:43:24.138Z,10.07
2019-05-16T17:45:51.083Z,8.40
2019-05-16T17:48:18.065Z,9.53
2019-05-16T17:50:46.693Z,7.40
2019-05-16T17:53:13.809Z,8.43
2019-05-16T17:55:40.738Z,7.97
2019-05-16T17:58:08.907Z,10.83
2019-05-16T18:00:36.131Z,10.37
2019-05-16T18:03:03.375Z,8.10
2019-05-16T18:05:30.390Z,7.90
2019-05-16T18:07:57.365Z,8.20
2019-05-16T18:10:26.950Z,9.57
2019-05-16T18:12:53.770Z,9.03
2019-05-16T18:15:21.308Z,7.30
2019-05-16T18:17:48.381Z,8.63
2019-05-16T18:20:15.751Z,8.90
2019-05-16T18:22:42.982Z,8.30
2019-05-16T18:25:09.979Z,8.70
2019-05-16T18:27:37.561Z,10.07
2019-05-16T18:30:05.197Z,9.00
2019-05-16T18:32:32.143Z,9.67
2019-05-16T18:34:59.121Z,9.80
2019-05-16T18:37:26.620Z,12.27
2019-05-16T18:39:53.645Z,11.70
2019-05-16T18:42:20.596Z,12.00
2019-05-16T18:44:47.596Z,12.27
2019-05-16T18:47:14.558Z,13.07
2019-05-16T18:49:41.511Z,15.57
2019-05-16T18:52:08.426Z,13.20
2019-05-16T18:54:37.654Z,10.77
2019-05-16T18:57:06.803Z,10.73
2019-05-16T18:59:33.198Z,11.07
2019-05-16T19:02:00.131Z,11.00
2019-05-16T19:04:27.166Z,12.17
2019-05-16T19:06:54.133Z,13.40
2019-05-16T19:09:21.100Z,13.53
2019-05-16T19:11:48.042Z,11.77
2019-05-16T19:14:16.971Z,12.90
2019-05-16T19:16:43.845Z,11.20
2019-05-16T19:19:10.776Z,11.43
2019-05-16T19:21:37.764Z,20.47
2019-05-16T19:24:06.848Z,13.67
2019-05-16T19:26:33.576Z,15.50
2019-05-16T19:29:00.562Z,16.83
2019-05-16T19:31:27.540Z,14.80
2019-05-16T19:33:56.560Z,12.40
2019-05-16T19:36:27.018Z,14.23
2019-05-16T19:38:53.911Z,13.03
2019-05-16T19:41:20.892Z,23.50
2019-05-16T19:43:47.911Z,13.83
2019-05-16T19:46:14.929Z,12.97
2019-05-16T19:48:41.867Z,12.07
2019-05-16T19:51:08.831Z,12.80
2019-05-16T19:53:36.501Z,14.43
2019-05-16T19:56:07.018Z,13.60
2019-05-16T19:58:33.575Z,14.73
2019-05-16T20:01:02.593Z,15.53
2019-05-16T20:03:29.518Z,15.33
2019-05-16T20:05:57.000Z,14.20
2019-05-16T20:08:24.014Z,14.30
2019-05-16T20:10:50.996Z,14.73
2019-05-16T20:13:20.490Z,16.23
2019-05-16T20:15:47.466Z,19.30
2019-05-16T20:18:18.230Z,14.83
2019-05-16T20:20:43.342Z,14.63
2019-05-16T20:23:10.272Z,14.63
2019-05-16T20:25:37.228Z,14.40
2019-05-16T20:28:08.765Z,15.00
2019-05-16T20:30:33.108Z,14.67
2019-05-16T20:33:00.085Z,15.60
2019-05-16T20:35:27.038Z,15.37
2019-05-16T20:37:54.145Z,14.63
2019-05-16T20:40:21.090Z,17.33
2019-05-16T20:42:48.267Z,14.53
2019-05-16T20:45:16.900Z,19.13
2019-05-16T20:47:43.991Z,17.40
2019-05-16T20:50:11.732Z,13.80
2019-05-16T20:52:38.785Z,14.93
2019-05-16T20:55:07.173Z,16.90
2019-05-16T20:57:34.484Z,15.90
2019-05-16T21:00:01.400Z,14.57
2019-05-16T21:02:28.364Z,16.03
2019-05-16T21:04:57.092Z,17.80
2019-05-16T21:07:26.362Z,15.40
2019-05-16T21:09:52.938Z,14.33
2019-05-16T21:12:22.193Z,13.40
2019-05-16T21:14:49.134Z,15.73
2019-05-16T21:17:17.418Z,16.80
2019-05-16T21:19:44.501Z,18.10
2019-05-16T21:22:11.444Z,17.10
2019-05-16T21:24:38.359Z,17.70
2019-05-16T21:27:05.306Z,16.53
2019-05-16T21:29:32.255Z,16.43
2019-05-16T21:31:59.237Z,17.43
2019-05-16T21:34:27.206Z,16.53
2019-05-16T21:36:54.410Z,17.83
2019-05-16T21:39:21.465Z,14.93
2019-05-16T21:41:48.507Z,19.03
2019-05-16T21:44:17.057Z,16.63
2019-05-16T21:46:44.224Z,16.70
2019-05-16T21:49:11.164Z,17.07
2019-05-16T21:51:38.094Z,16.13
2019-05-16T21:54:07.010Z,18.17
2019-05-16T21:56:33.883Z,17.90
2019-05-16T21:59:01.080Z,16.13
2019-05-16T22:01:28.097Z,16.70
2019-05-16T22:03:56.715Z,15.30
2019-05-16T22:06:23.775Z,17.27
2019-05-16T22:08:50.727Z,16.50
2019-05-16T22:11:17.661Z,16.13
2019-05-16T22:13:46.447Z,19.07
2019-05-16T22:16:13.560Z,16.33
2019-05-16T22:18:40.523Z,18.37
2019-05-16T22:21:07.869Z,21.13
2019-05-16T22:23:37.233Z,18.03
2019-05-16T22:26:03.654Z,17.03
2019-05-16T22:28:30.618Z,19.13
2019-05-16T22:30:58.539Z,16.47
2019-05-16T22:33:26.761Z,18.23
2019-05-16T22:35:53.758Z,19.00
2019-05-16T22:38:20.795Z,18.10
2019-05-16T22:40:47.733Z,16.80
2019-05-16T22:43:17.215Z,17.57
2019-05-16T22:45:43.571Z,16.77
2019-05-16T22:48:10.520Z,18.30
2019-05-16T22:50:37.448Z,17.33
2019-05-16T22:53:06.439Z,18.50
2019-05-16T22:55:33.308Z,17.63
2019-05-16T22:58:00.259Z,20.10
2019-05-16T23:00:29.466Z,16.97
2019-05-16T23:02:56.729Z,17.73
2019-05-16T23:05:23.645Z,17.20
2019-05-16T23:08:02.099Z,20.07
2019-05-16T23:10:19.440Z,18.73
2019-05-16T23:12:46.382Z,18.30
2019-05-16T23:15:13.936Z,21.33
2019-05-16T23:17:40.853Z,21.43
2019-05-16T23:20:08.106Z,19.90
2019-05-16T23:22:36.709Z,18.30
2019-05-16T23:25:06.372Z,22.93
2019-05-16T23:27:32.720Z,20.40
2019-05-16T23:29:59.665Z,22.27
2019-05-16T23:32:27.113Z,17.10
2019-05-16T23:34:54.147Z,19.40
2019-05-16T23:37:21.077Z,19.03
2019-05-16T23:39:48.030Z,21.43
2019-05-16T23:42:14.973Z,19.63
